Time;durP1;ratioP1;P1;durP2;ratioP2;P2;SDS_P1;SDS_P2;PMS_P1;PMS_P2;Temp;Humidity;BMP_temperature;BMP_pressure;BME280_temperature;BME280_humidity;BME280_pressure;Samples;Min_cycle;Max_cycle;Signal;HPM_P1;HPM_P2
2022/03/01 12:10:54;;;;;;;8.60;5.93;;;9.80;38.10;;;;;;20982698;28;20535;-65
2022/03/01 12:21:02;;;;;;;8.27;5.50;;;9.30;37.70;;;;;;20891739;28;20236;-66
2022/03/01 12:31:17;;;;;;;9.33;6.00;;;9.40;37.80;;;;;;20874330;28;20544;-64
2022/03/01 12:41:22;;;;;;;11.77;6.27;;;9.50;37.50;;;;;;20865178;28;20224;-69
2022/03/01 12:51:25;;;;;;;9.13;6.00;;;9.80;39.70;;;;;;20872304;28;20212;-68
2022/03/01 13:01:27;;;;;;;8.30;5.87;;;9.70;38.30;;;;;;20860259;28;20299;-61
2022/03/01 13:11:29;;;;;;;10.73;6.03;;;10.00;36.50;;;;;;20882246;28;20574;-62
2022/03/01 13:21:41;;;;;;;10.53;6.67;;;10.30;35.80;;;;;;20791637;28;20237;-62
2022/03/01 13:31:44;;;;;;;15.00;6.30;;;10.70;42.40;;;;;;20789635;28;20257;-61
2022/03/01 13:41:52;;;;;;;8.90;5.93;;;10.80;42.40;;;;;;20791145;28;20690;-62
2022/03/01 13:52:13;;;;;;;11.00;7.10;;;10.90;42.30;;;;;;20765409;28;20208;-67
2022/03/01 14:02:18;;;;;;;9.17;6.60;;;10.90;40.30;;;;;;20836014;28;20233;-71
2022/03/01 14:12:40;;;;;;;8.70;6.40;;;10.80;38.20;;;;;;20769862;28;20213;-67
2022/03/01 14:22:50;;;;;;;13.90;6.80;;;10.60;37.40;;;;;;20773427;28;20242;-70
2022/03/01 14:32:54;;;;;;;11.20;6.80;;;10.30;37.10;;;;;;20823685;28;20203;-66
2022/03/01 14:42:56;;;;;;;9.93;6.83;;;10.60;37.00;;;;;;20811623;28;20247;-64
2022/03/01 14:52:58;;;;;;;11.67;6.97;;;12.70;34.50;;;;;;20789748;28;20545;-65
2022/03/01 15:03:00;;;;;;;8.30;6.33;;;12.70;35.10;;;;;;20831568;28;20265;-63
2022/03/01 15:13:03;;;;;;;11.83;7.10;;;13.10;35.20;;;;;;20829879;28;20264;-69
2022/03/01 15:23:05;;;;;;;8.90;6.77;;;14.30;33.80;;;;;;20829793;28;20599;-65
2022/03/01 15:33:06;;;;;;;10.53;6.83;;;14.60;33.70;;;;;;20817362;28;20209;-70
2022/03/01 15:43:08;;;;;;;10.30;6.70;;;13.90;33.50;;;;;;20747449;28;20240;-68
2022/03/01 15:53:09;;;;;;;10.10;7.23;;;15.90;31.80;;;;;;20746887;28;20205;-67
2022/03/01 16:03:11;;;;;;;11.57;7.27;;;13.10;32.50;;;;;;20747293;28;20248;-71
2022/03/01 16:13:13;;;;;;;8.83;6.77;;;11.90;33.10;;;;;;20749204;28;20672;-71
2022/03/01 16:23:21;;;;;;;12.03;7.10;;;10.80;33.60;;;;;;20746402;28;20258;-61
2022/03/01 16:33:23;;;;;;;9.93;6.53;;;10.60;34.20;;;;;;20808838;28;20206;-74
2022/03/01 16:43:24;;;;;;;11.23;6.50;;;10.20;34.80;;;;;;20791262;28;20232;-66
2022/03/01 16:53:26;;;;;;;11.87;6.37;;;9.70;36.50;;;;;;20796738;28;20271;-68
2022/03/01 17:03:28;;;;;;;10.33;6.73;;;9.40;37.30;;;;;;20832631;28;20785;-70
2022/03/01 17:13:30;;;;;;;12.10;7.70;;;9.20;38.00;;;;;;20840544;28;20239;-70
2022/03/01 17:23:34;;;;;;;14.00;7.30;;;8.90;39.00;;;;;;20788786;28;20291;-71
2022/03/01 17:33:36;;;;;;;20.93;8.97;;;8.40;41.10;;;;;;20758123;28;20296;-70
2022/03/01 17:43:39;;;;;;;15.63;8.27;;;8.10;42.00;;;;;;20760070;28;20264;-68
2022/03/01 17:53:42;;;;;;;22.40;9.23;;;7.90;42.70;;;;;;20771661;28;20796;-63
2022/03/01 18:03:45;;;;;;;18.43;9.70;;;7.50;44.00;;;;;;20758593;28;20234;-71
2022/03/01 18:13:47;;;;;;;22.50;9.90;;;7.20;45.30;;;;;;20754670;28;20209;-62
2022/03/01 18:23:48;;;;;;;24.03;12.93;;;6.80;46.00;;;;;;20757117;28;20261;-65
2022/03/01 18:33:51;;;;;;;24.80;12.90;;;6.40;47.30;;;;;;20751882;28;20264;-67
2022/03/01 18:43:52;;;;;;;22.80;11.93;;;6.30;48.30;;;;;;20749032;28;20248;-70
2022/03/01 18:53:54;;;;;;;23.57;12.67;;;6.30;48.80;;;;;;20749735;28;20242;-67
2022/03/01 19:03:56;;;;;;;23.37;14.20;;;6.00;49.50;;;;;;20748367;28;20241;-65
2022/03/01 19:13:59;;;;;;;24.37;13.63;;;5.80;49.90;;;;;;20749848;28;20297;-63
2022/03/01 19:24:01;;;;;;;24.87;13.80;;;5.70;50.50;;;;;;20779132;28;20255;-64
2022/03/01 19:34:03;;;;;;;22.03;12.80;;;5.40;51.10;;;;;;20829212;28;20236;-65
2022/03/01 19:44:05;;;;;;;28.17;13.13;;;4.90;51.70;;;;;;20748813;28;20209;-64
2022/03/01 19:54:08;;;;;;;27.83;14.40;;;4.80;51.90;;;;;;20747947;28;20602;-71
2022/03/01 20:04:10;;;;;;;25.47;13.93;;;4.60;52.50;;;;;;20747644;28;20235;-65
2022/03/01 20:14:11;;;;;;;25.57;14.13;;;4.50;53.30;;;;;;20778546;28;20228;-67
2022/03/01 20:24:14;;;;;;;25.73;13.90;;;4.40;53.70;;;;;;20830992;28;20290;-66
2022/03/01 20:34:16;;;;;;;27.10;13.77;;;4.40;54.00;;;;;;20844777;28;20243;-64
2022/03/01 20:44:21;;;;;;;30.97;14.97;;;4.40;54.50;;;;;;20843633;28;20209;-65
2022/03/01 20:54:25;;;;;;;29.03;14.63;;;4.30;54.70;;;;;;20842656;28;20268;-66
2022/03/01 21:04:27;;;;;;;26.80;14.90;;;4.30;54.90;;;;;;20842101;28;20322;-64
2022/03/01 21:14:29;;;;;;;28.27;15.23;;;3.90;54.60;;;;;;20805656;28;20237;-64
2022/03/01 21:24:31;;;;;;;32.10;14.73;;;3.70;55.80;;;;;;20759013;28;20209;-66
2022/03/01 21:34:33;;;;;;;24.37;13.80;;;3.70;56.60;;;;;;20757620;28;20315;-66
2022/03/01 21:44:35;;;;;;;24.50;13.40;;;3.70;56.40;;;;;;20757806;28;20260;-65
2022/03/01 21:54:37;;;;;;;27.93;14.13;;;3.80;56.60;;;;;;20756580;28;20649;-65
2022/03/01 22:04:39;;;;;;;23.23;13.97;;;3.90;56.80;;;;;;20798510;28;20602;-69
2022/03/01 22:14:41;;;;;;;24.10;14.43;;;3.90;56.80;;;;;;20834089;28;20232;-64
2022/03/01 22:24:42;;;;;;;23.90;14.37;;;3.70;57.40;;;;;;20834044;28;20282;-65
2022/03/01 22:34:44;;;;;;;28.53;15.23;;;3.80;57.60;;;;;;20833116;28;20294;-68
2022/03/01 22:44:46;;;;;;;26.30;13.73;;;3.70;57.80;;;;;;20831389;28;20208;-68
2022/03/01 22:54:48;;;;;;;26.27;13.83;;;3.60;58.60;;;;;;20830243;28;20239;-64
2022/03/01 23:04:49;;;;;;;27.10;13.53;;;3.50;58.30;;;;;;20829987;28;20298;-64
2022/03/01 23:14:53;;;;;;;21.00;13.37;;;3.60;58.90;;;;;;20821793;28;20264;-65
2022/03/01 23:24:54;;;;;;;26.80;15.03;;;3.70;59.00;;;;;;20742873;28;20541;-68
2022/03/01 23:34:56;;;;;;;20.33;12.37;;;3.30;59.30;;;;;;20748492;28;20237;-69
2022/03/01 23:44:59;;;;;;;22.00;13.20;;;3.30;59.80;;;;;;20748770;28;20671;-65
2022/03/01 23:55:02;;;;;;;22.47;13.53;;;3.40;59.60;;;;;;20747917;28;20240;-69
